sensor_id;sensor_type;location;lat;lon;timestamp;P1;durP1;ratioP1;P2;durP2;ratioP2
18459;SDS011;9359;50.932;6.924;2024-01-07T00:01:48;33.17;;;11.60;;
18459;SDS011;9359;50.932;6.924;2024-01-07T00:04:18;29.97;;;9.57;;
18459;SDS011;9359;50.932;6.924;2024-01-07T00:06:49;34.23;;;10.00;;
18459;SDS011;9359;50.932;6.924;2024-01-07T00:09:19;33.90;;;10.93;;
18459;SDS011;9359;50.932;6.924;2024-01-07T00:11:50;26.67;;;9.70;;
18459;SDS011;9359;50.932;6.924;2024-01-07T00:14:20;35.00;;;11.60;;
18459;SDS011;9359;50.932;6.924;2024-01-07T00:16:52;33.10;;;9.93;;
18459;SDS011;9359;50.932;6.924;2024-01-07T00:19:23;46.63;;;13.53;;
18459;SDS011;9359;50.932;6.924;2024-01-07T00:21:53;39.00;;;11.30;;
18459;SDS011;9359;50.932;6.924;2024-01-07T00:24:24;34.13;;;12.73;;
18459;SDS011;9359;50.932;6.924;2024-01-07T00:26:55;37.30;;;11.20;;
18459;SDS011;9359;50.932;6.924;2024-01-07T00:29:25;27.53;;;10.43;;
18459;SDS011;9359;50.932;6.924;2024-01-07T00:31:58;45.53;;;12.50;;
18459;SDS011;9359;50.932;6.924;2024-01-07T00:34:29;37.87;;;11.33;;
18459;SDS011;9359;50.932;6.924;2024-01-07T00:36:59;28.50;;;9.73;;
18459;SDS011;9359;50.932;6.924;2024-01-07T00:39:30;34.87;;;11.80;;
18459;SDS011;9359;50.932;6.924;2024-01-07T00:42:00;39.83;;;13.33;;
18459;SDS011;9359;50.932;6.924;2024-01-07T00:44:30;38.20;;;12.00;;
18459;SDS011;9359;50.932;6.924;2024-01-07T00:47:03;29.23;;;10.03;;
18459;SDS011;9359;50.932;6.924;2024-01-07T00:49:33;37.97;;;12.10;;
18459;SDS011;9359;50.932;6.924;2024-01-07T00:52:05;29.33;;;10.40;;
18459;SDS011;9359;50.932;6.924;2024-01-07T00:54:36;31.17;;;11.40;;
18459;SDS011;9359;50.932;6.924;2024-01-07T00:57:07;41.10;;;13.40;;
18459;SDS011;9359;50.932;6.924;2024-01-07T00:59:39;42.33;;;12.57;;
18459;SDS011;9359;50.932;6.924;2024-01-07T01:02:11;33.63;;;10.93;;
18459;SDS011;9359;50.932;6.924;2024-01-07T01:04:41;39.60;;;12.00;;
18459;SDS011;9359;50.932;6.924;2024-01-07T01:07:12;29.00;;;10.10;;
18459;SDS011;9359;50.932;6.924;2024-01-07T01:09:42;48.07;;;15.90;;
18459;SDS011;9359;50.932;6.924;2024-01-07T01:12:12;45.23;;;13.53;;
18459;SDS011;9359;50.932;6.924;2024-01-07T01:14:43;36.00;;;11.53;;
18459;SDS011;9359;50.932;6.924;2024-01-07T01:17:15;45.20;;;13.70;;
18459;SDS011;9359;50.932;6.924;2024-01-07T01:19:46;40.13;;;13.03;;
18459;SDS011;9359;50.932;6.924;2024-01-07T01:22:16;50.43;;;15.60;;
18459;SDS011;9359;50.932;6.924;2024-01-07T01:24:46;40.47;;;13.33;;
18459;SDS011;9359;50.932;6.924;2024-01-07T01:27:19;41.40;;;13.63;;
18459;SDS011;9359;50.932;6.924;2024-01-07T01:29:49;43.53;;;14.43;;
18459;SDS011;9359;50.932;6.924;2024-01-07T01:32:21;46.97;;;14.87;;
18459;SDS011;9359;50.932;6.924;2024-01-07T01:34:52;42.27;;;13.30;;
18459;SDS011;9359;50.932;6.924;2024-01-07T01:37:22;30.63;;;9.73;;
18459;SDS011;9359;50.932;6.924;2024-01-07T01:39:52;43.93;;;14.53;;
18459;SDS011;9359;50.932;6.924;2024-01-07T01:42:23;37.50;;;12.73;;
18459;SDS011;9359;50.932;6.924;2024-01-07T01:44:53;40.83;;;12.20;;
18459;SDS011;9359;50.932;6.924;2024-01-07T01:47:27;30.10;;;10.13;;
18459;SDS011;9359;50.932;6.924;2024-01-07T01:49:58;44.50;;;14.23;;
18459;SDS011;9359;50.932;6.924;2024-01-07T01:52:29;28.43;;;9.47;;
18459;SDS011;9359;50.932;6.924;2024-01-07T01:55:00;38.53;;;11.27;;
18459;SDS011;9359;50.932;6.924;2024-01-07T01:57:32;32.83;;;9.60;;
18459;SDS011;9359;50.932;6.924;2024-01-07T02:00:03;29.30;;;9.87;;
18459;SDS011;9359;50.932;6.924;2024-01-07T02:02:37;38.60;;;11.20;;
18459;SDS011;9359;50.932;6.924;2024-01-07T02:05:07;41.20;;;11.63;;
18459;SDS011;9359;50.932;6.924;2024-01-07T02:07:39;37.27;;;11.57;;
18459;SDS011;9359;50.932;6.924;2024-01-07T02:10:10;29.77;;;9.17;;
18459;SDS011;9359;50.932;6.924;2024-01-07T02:12:43;31.27;;;11.17;;
18459;SDS011;9359;50.932;6.924;2024-01-07T02:15:14;30.50;;;9.17;;
18459;SDS011;9359;50.932;6.924;2024-01-07T02:17:46;32.13;;;10.70;;
18459;SDS011;9359;50.932;6.924;2024-01-07T02:20:17;41.17;;;12.20;;
18459;SDS011;9359;50.932;6.924;2024-01-07T02:22:47;27.70;;;9.93;;
18459;SDS011;9359;50.932;6.924;2024-01-07T02:25:19;35.63;;;12.37;;
18459;SDS011;9359;50.932;6.924;2024-01-07T02:27:50;29.13;;;10.53;;
18459;SDS011;9359;50.932;6.924;2024-01-07T02:30:20;34.57;;;11.57;;
18459;SDS011;9359;50.932;6.924;2024-01-07T02:32:51;38.53;;;13.50;;
18459;SDS011;9359;50.932;6.924;2024-01-07T02:35:21;35.60;;;11.73;;
18459;SDS011;9359;50.932;6.924;2024-01-07T02:37:51;59.10;;;17.13;;
18459;SDS011;9359;50.932;6.924;2024-01-07T02:40:23;41.37;;;12.17;;
18459;SDS011;9359;50.932;6.924;2024-01-07T02:42:54;34.60;;;12.40;;
18459;SDS011;9359;50.932;6.924;2024-01-07T02:45:24;41.13;;;12.23;;
18459;SDS011;9359;50.932;6.924;2024-01-07T02:47:55;32.40;;;11.13;;
18459;SDS011;9359;50.932;6.924;2024-01-07T02:50:25;30.03;;;10.47;;
18459;SDS011;9359;50.932;6.924;2024-01-07T02:52:56;37.70;;;11.87;;
18459;SDS011;9359;50.932;6.924;2024-01-07T02:55:28;30.50;;;11.07;;
18459;SDS011;9359;50.932;6.924;2024-01-07T02:57:58;31.57;;;10.27;;
18459;SDS011;9359;50.932;6.924;2024-01-07T03:00:28;37.67;;;11.37;;
18459;SDS011;9359;50.932;6.924;2024-01-07T03:02:59;33.07;;;10.37;;
18459;SDS011;9359;50.932;6.924;2024-01-07T03:05:29;40.67;;;12.57;;
18459;SDS011;9359;50.932;6.924;2024-01-07T03:08:00;33.53;;;11.07;;
18459;SDS011;9359;50.932;6.924;2024-01-07T03:10:33;28.13;;;10.70;;
18459;SDS011;9359;50.932;6.924;2024-01-07T03:13:03;28.33;;;10.00;;
18459;SDS011;9359;50.932;6.924;2024-01-07T03:15:34;32.97;;;10.13;;
18459;SDS011;9359;50.932;6.924;2024-01-07T03:18:04;31.87;;;10.67;;
18459;SDS011;9359;50.932;6.924;2024-01-07T03:20:35;30.37;;;10.40;;
18459;SDS011;9359;50.932;6.924;2024-01-07T03:23:05;27.00;;;8.83;;
18459;SDS011;9359;50.932;6.924;2024-01-07T03:25:37;31.70;;;9.67;;
18459;SDS011;9359;50.932;6.924;2024-01-07T03:28:08;31.80;;;8.87;;
18459;SDS011;9359;50.932;6.924;2024-01-07T03:30:38;34.50;;;9.80;;
18459;SDS011;9359;50.932;6.924;2024-01-07T03:33:08;29.20;;;9.53;;
18459;SDS011;9359;50.932;6.924;2024-01-07T03:35:39;29.23;;;9.37;;
18459;SDS011;9359;50.932;6.924;2024-01-07T03:38:09;28.10;;;9.20;;
18459;SDS011;9359;50.932;6.924;2024-01-07T03:40:41;27.97;;;9.70;;
18459;SDS011;9359;50.932;6.924;2024-01-07T03:43:12;28.87;;;9.60;;
18459;SDS011;9359;50.932;6.924;2024-01-07T03:45:43;27.20;;;10.47;;
18459;SDS011;9359;50.932;6.924;2024-01-07T03:48:15;35.73;;;10.10;;
18459;SDS011;9359;50.932;6.924;2024-01-07T03:50:46;40.13;;;11.13;;
18459;SDS011;9359;50.932;6.924;2024-01-07T03:53:16;35.70;;;9.43;;
18459;SDS011;9359;50.932;6.924;2024-01-07T03:55:48;34.17;;;10.13;;
18459;SDS011;9359;50.932;6.924;2024-01-07T03:58:19;33.43;;;9.80;;
18459;SDS011;9359;50.932;6.924;2024-01-07T04:00:49;34.90;;;10.50;;
18459;SDS011;9359;50.932;6.924;2024-01-07T04:03:20;26.80;;;9.47;;
18459;SDS011;9359;50.932;6.924;2024-01-07T04:05:50;29.53;;;9.03;;
18459;SDS011;9359;50.932;6.924;2024-01-07T04:08:20;30.33;;;9.53;;
18459;SDS011;9359;50.932;6.924;2024-01-07T04:10:53;33.17;;;10.33;;
18459;SDS011;9359;50.932;6.924;2024-01-07T04:13:23;37.23;;;11.07;;
18459;SDS011;9359;50.932;6.924;2024-01-07T04:15:54;33.77;;;10.37;;
18459;SDS011;9359;50.932;6.924;2024-01-07T04:18:24;34.80;;;10.07;;
18459;SDS011;9359;50.932;6.924;2024-01-07T04:20:55;26.30;;;9.07;;
18459;SDS011;9359;50.932;6.924;2024-01-07T04:23:25;25.67;;;9.40;;
18459;SDS011;9359;50.932;6.924;2024-01-07T04:25:57;32.03;;;9.60;;
18459;SDS011;9359;50.932;6.924;2024-01-07T04:28:27;29.27;;;9.67;;
18459;SDS011;9359;50.932;6.924;2024-01-07T04:30:58;34.27;;;11.07;;
18459;SDS011;9359;50.932;6.924;2024-01-07T04:33:28;25.97;;;9.50;;
18459;SDS011;9359;50.932;6.924;2024-01-07T04:35:59;33.20;;;9.60;;
18459;SDS011;9359;50.932;6.924;2024-01-07T04:38:29;37.67;;;10.57;;
18459;SDS011;9359;50.932;6.924;2024-01-07T04:41:02;30.23;;;8.73;;
18459;SDS011;9359;50.932;6.924;2024-01-07T04:43:34;28.57;;;9.37;;
18459;SDS011;9359;50.932;6.924;2024-01-07T04:46:05;36.50;;;10.40;;
18459;SDS011;9359;50.932;6.924;2024-01-07T04:48:36;31.70;;;10.00;;
18459;SDS011;9359;50.932;6.924;2024-01-07T04:51:07;32.67;;;9.07;;
18459;SDS011;9359;50.932;6.924;2024-01-07T04:53:37;30.60;;;9.23;;
18459;SDS011;9359;50.932;6.924;2024-01-07T04:56:10;32.33;;;9.13;;
18459;SDS011;9359;50.932;6.924;2024-01-07T04:58:40;31.20;;;9.30;;
18459;SDS011;9359;50.932;6.924;2024-01-07T05:01:11;32.83;;;9.43;;
18459;SDS011;9359;50.932;6.924;2024-01-07T05:03:41;31.57;;;10.10;;
18459;SDS011;9359;50.932;6.924;2024-01-07T05:06:11;26.13;;;8.57;;
18459;SDS011;9359;50.932;6.924;2024-01-07T05:08:42;34.80;;;11.10;;
18459;SDS011;9359;50.932;6.924;2024-01-07T05:11:14;31.10;;;10.07;;
18459;SDS011;9359;50.932;6.924;2024-01-07T05:13:45;30.53;;;10.53;;
18459;SDS011;9359;50.932;6.924;2024-01-07T05:16:18;31.60;;;10.37;;
18459;SDS011;9359;50.932;6.924;2024-01-07T05:18:49;36.47;;;11.07;;
18459;SDS011;9359;50.932;6.924;2024-01-07T05:21:20;38.13;;;11.30;;
18459;SDS011;9359;50.932;6.924;2024-01-07T05:23:50;41.90;;;12.00;;
18459;SDS011;9359;50.932;6.924;2024-01-07T05:26:22;40.90;;;12.37;;
18459;SDS011;9359;50.932;6.924;2024-01-07T05:28:53;37.60;;;10.80;;
18459;SDS011;9359;50.932;6.924;2024-01-07T05:31:23;39.07;;;11.77;;
18459;SDS011;9359;50.932;6.924;2024-01-07T05:33:53;37.03;;;12.37;;
18459;SDS011;9359;50.932;6.924;2024-01-07T05:36:24;45.47;;;12.23;;
18459;SDS011;9359;50.932;6.924;2024-01-07T05:38:54;42.20;;;12.00;;
18459;SDS011;9359;50.932;6.924;2024-01-07T05:41:26;41.40;;;12.60;;
18459;SDS011;9359;50.932;6.924;2024-01-07T05:43:57;43.80;;;12.83;;
18459;SDS011;9359;50.932;6.924;2024-01-07T05:46:27;38.27;;;11.37;;
18459;SDS011;9359;50.932;6.924;2024-01-07T05:48:58;32.77;;;11.00;;
18459;SDS011;9359;50.932;6.924;2024-01-07T05:51:28;41.87;;;12.57;;
18459;SDS011;9359;50.932;6.924;2024-01-07T05:53:58;43.67;;;12.87;;
18459;SDS011;9359;50.932;6.924;2024-01-07T05:56:31;42.03;;;11.30;;
18459;SDS011;9359;50.932;6.924;2024-01-07T05:59:06;46.57;;;13.63;;
18459;SDS011;9359;50.932;6.924;2024-01-07T06:01:37;42.97;;;12.53;;
18459;SDS011;9359;50.932;6.924;2024-01-07T06:04:07;38.17;;;12.60;;
18459;SDS011;9359;50.932;6.924;2024-01-07T06:06:37;40.20;;;12.53;;
18459;SDS011;9359;50.932;6.924;2024-01-07T06:09:08;43.00;;;12.30;;
18459;SDS011;9359;50.932;6.924;2024-01-07T06:11:40;43.23;;;13.40;;
18459;SDS011;9359;50.932;6.924;2024-01-07T06:14:11;42.00;;;13.80;;
18459;SDS011;9359;50.932;6.924;2024-01-07T06:16:41;53.57;;;15.63;;
18459;SDS011;9359;50.932;6.924;2024-01-07T06:19:12;55.10;;;14.50;;
18459;SDS011;9359;50.932;6.924;2024-01-07T06:21:43;57.23;;;15.53;;
18459;SDS011;9359;50.932;6.924;2024-01-07T06:24:13;52.77;;;16.33;;
18459;SDS011;9359;50.932;6.924;2024-01-07T06:26:45;50.33;;;14.83;;
18459;SDS011;9359;50.932;6.924;2024-01-07T06:29:16;46.00;;;12.60;;
18459;SDS011;9359;50.932;6.924;2024-01-07T06:31:46;48.17;;;13.30;;
18459;SDS011;9359;50.932;6.924;2024-01-07T06:34:17;49.23;;;14.07;;
18459;SDS011;9359;50.932;6.924;2024-01-07T06:36:48;54.90;;;14.30;;
18459;SDS011;9359;50.932;6.924;2024-01-07T06:40:12;54.10;;;14.43;;
18459;SDS011;9359;50.932;6.924;2024-01-07T06:42:43;44.43;;;12.97;;
18459;SDS011;9359;50.932;6.924;2024-01-07T06:45:14;55.03;;;13.57;;
18459;SDS011;9359;50.932;6.924;2024-01-07T06:47:45;56.30;;;14.80;;
18459;SDS011;9359;50.932;6.924;2024-01-07T06:50:16;50.07;;;14.27;;
18459;SDS011;9359;50.932;6.924;2024-01-07T06:52:47;50.03;;;14.67;;
18459;SDS011;9359;50.932;6.924;2024-01-07T06:55:19;46.77;;;13.63;;
18459;SDS011;9359;50.932;6.924;2024-01-07T06:57:50;42.90;;;12.80;;
18459;SDS011;9359;50.932;6.924;2024-01-07T07:00:20;47.07;;;13.43;;
18459;SDS011;9359;50.932;6.924;2024-01-07T07:02:51;53.80;;;13.40;;
18459;SDS011;9359;50.932;6.924;2024-01-07T07:05:21;43.20;;;13.63;;
18459;SDS011;9359;50.932;6.924;2024-01-07T07:07:52;41.07;;;13.60;;
18459;SDS011;9359;50.932;6.924;2024-01-07T07:10:24;43.43;;;12.87;;
18459;SDS011;9359;50.932;6.924;2024-01-07T07:12:54;62.40;;;15.57;;
18459;SDS011;9359;50.932;6.924;2024-01-07T07:15:25;64.83;;;14.70;;
18459;SDS011;9359;50.932;6.924;2024-01-07T07:17:55;53.77;;;14.20;;
18459;SDS011;9359;50.932;6.924;2024-01-07T07:20:26;57.07;;;15.93;;
18459;SDS011;9359;50.932;6.924;2024-01-07T07:22:56;61.87;;;16.27;;
18459;SDS011;9359;50.932;6.924;2024-01-07T07:25:29;55.70;;;17.23;;
18459;SDS011;9359;50.932;6.924;2024-01-07T07:27:59;59.13;;;17.97;;
18459;SDS011;9359;50.932;6.924;2024-01-07T07:30:30;52.67;;;15.87;;
18459;SDS011;9359;50.932;6.924;2024-01-07T07:33:00;48.77;;;14.73;;
18459;SDS011;9359;50.932;6.924;2024-01-07T07:35:32;53.90;;;17.03;;
18459;SDS011;9359;50.932;6.924;2024-01-07T07:38:05;56.63;;;17.83;;
18459;SDS011;9359;50.932;6.924;2024-01-07T07:40:37;77.40;;;22.63;;
18459;SDS011;9359;50.932;6.924;2024-01-07T07:43:08;74.17;;;21.37;;
18459;SDS011;9359;50.932;6.924;2024-01-07T07:45:38;57.03;;;17.03;;
18459;SDS011;9359;50.932;6.924;2024-01-07T07:48:09;49.53;;;15.40;;
18459;SDS011;9359;50.932;6.924;2024-01-07T07:50:39;51.30;;;14.80;;
18459;SDS011;9359;50.932;6.924;2024-01-07T07:53:10;51.63;;;15.90;;
18459;SDS011;9359;50.932;6.924;2024-01-07T07:55:42;46.80;;;16.17;;
18459;SDS011;9359;50.932;6.924;2024-01-07T07:58:12;50.60;;;16.03;;
18459;SDS011;9359;50.932;6.924;2024-01-07T08:00:43;50.50;;;15.97;;
18459;SDS011;9359;50.932;6.924;2024-01-07T08:03:14;46.57;;;15.13;;
18459;SDS011;9359;50.932;6.924;2024-01-07T08:05:44;53.57;;;15.87;;
18459;SDS011;9359;50.932;6.924;2024-01-07T08:08:16;49.17;;;14.70;;
18459;SDS011;9359;50.932;6.924;2024-01-07T08:10:48;49.53;;;14.33;;
18459;SDS011;9359;50.932;6.924;2024-01-07T08:13:18;46.93;;;14.30;;
18459;SDS011;9359;50.932;6.924;2024-01-07T08:15:48;42.77;;;14.27;;
18459;SDS011;9359;50.932;6.924;2024-01-07T08:18:19;54.17;;;17.00;;
18459;SDS011;9359;50.932;6.924;2024-01-07T08:20:49;57.97;;;19.53;;
18459;SDS011;9359;50.932;6.924;2024-01-07T08:23:19;60.27;;;20.20;;
18459;SDS011;9359;50.932;6.924;2024-01-07T08:25:52;65.00;;;19.20;;
18459;SDS011;9359;50.932;6.924;2024-01-07T08:28:22;68.97;;;18.57;;
18459;SDS011;9359;50.932;6.924;2024-01-07T08:30:52;71.20;;;20.73;;
18459;SDS011;9359;50.932;6.924;2024-01-07T08:33:23;73.60;;;22.37;;
18459;SDS011;9359;50.932;6.924;2024-01-07T08:35:55;82.23;;;25.00;;
18459;SDS011;9359;50.932;6.924;2024-01-07T08:38:25;75.67;;;25.10;;
18459;SDS011;9359;50.932;6.924;2024-01-07T08:40:57;83.17;;;25.90;;
18459;SDS011;9359;50.932;6.924;2024-01-07T08:43:28;90.87;;;27.93;;
18459;SDS011;9359;50.932;6.924;2024-01-07T08:45:58;81.50;;;27.83;;
18459;SDS011;9359;50.932;6.924;2024-01-07T08:48:29;95.47;;;29.30;;
18459;SDS011;9359;50.932;6.924;2024-01-07T08:50:59;104.03;;;30.00;;
18459;SDS011;9359;50.932;6.924;2024-01-07T08:53:29;98.83;;;30.43;;
18459;SDS011;9359;50.932;6.924;2024-01-07T08:58:54;106.20;;;31.20;;
18459;SDS011;9359;50.932;6.924;2024-01-07T09:01:25;102.53;;;31.30;;
18459;SDS011;9359;50.932;6.924;2024-01-07T09:03:55;102.90;;;32.33;;
18459;SDS011;9359;50.932;6.924;2024-01-07T09:06:26;109.73;;;32.27;;
18459;SDS011;9359;50.932;6.924;2024-01-07T09:08:56;95.60;;;30.80;;
18459;SDS011;9359;50.932;6.924;2024-01-07T09:11:28;91.93;;;28.47;;
18459;SDS011;9359;50.932;6.924;2024-01-07T09:14:00;88.10;;;27.53;;
18459;SDS011;9359;50.932;6.924;2024-01-07T09:16:30;79.30;;;25.03;;
18459;SDS011;9359;50.932;6.924;2024-01-07T09:19:00;79.67;;;23.80;;
18459;SDS011;9359;50.932;6.924;2024-01-07T09:21:31;77.00;;;23.30;;
18459;SDS011;9359;50.932;6.924;2024-01-07T09:24:02;75.80;;;23.20;;
18459;SDS011;9359;50.932;6.924;2024-01-07T09:26:35;79.43;;;24.70;;
18459;SDS011;9359;50.932;6.924;2024-01-07T09:29:05;64.63;;;21.07;;
18459;SDS011;9359;50.932;6.924;2024-01-07T09:31:36;72.87;;;22.37;;
18459;SDS011;9359;50.932;6.924;2024-01-07T09:34:07;67.70;;;21.03;;
18459;SDS011;9359;50.932;6.924;2024-01-07T09:36:37;59.47;;;20.33;;
18459;SDS011;9359;50.932;6.924;2024-01-07T09:39:08;59.43;;;19.07;;
18459;SDS011;9359;50.932;6.924;2024-01-07T09:41:40;55.43;;;17.90;;
18459;SDS011;9359;50.932;6.924;2024-01-07T09:44:11;51.73;;;17.23;;
18459;SDS011;9359;50.932;6.924;2024-01-07T09:46:42;56.77;;;18.30;;
18459;SDS011;9359;50.932;6.924;2024-01-07T09:49:17;56.07;;;17.30;;
18459;SDS011;9359;50.932;6.924;2024-01-07T09:51:47;49.53;;;16.77;;
18459;SDS011;9359;50.932;6.924;2024-01-07T09:54:22;49.17;;;16.40;;
18459;SDS011;9359;50.932;6.924;2024-01-07T09:56:55;46.17;;;16.07;;
18459;SDS011;9359;50.932;6.924;2024-01-07T09:59:29;43.07;;;14.77;;
18459;SDS011;9359;50.932;6.924;2024-01-07T10:02:00;49.80;;;15.13;;
18459;SDS011;9359;50.932;6.924;2024-01-07T10:04:30;46.23;;;15.00;;
18459;SDS011;9359;50.932;6.924;2024-01-07T10:07:01;41.93;;;14.63;;
18459;SDS011;9359;50.932;6.924;2024-01-07T10:09:32;40.27;;;14.10;;
18459;SDS011;9359;50.932;6.924;2024-01-07T10:12:05;37.37;;;13.23;;
18459;SDS011;9359;50.932;6.924;2024-01-07T10:14:38;43.47;;;13.87;;
18459;SDS011;9359;50.932;6.924;2024-01-07T10:17:17;49.23;;;14.57;;
18459;SDS011;9359;50.932;6.924;2024-01-07T10:19:53;41.87;;;14.30;;
18459;SDS011;9359;50.932;6.924;2024-01-07T10:22:24;40.87;;;14.20;;
18459;SDS011;9359;50.932;6.924;2024-01-07T10:24:56;43.93;;;14.20;;
18459;SDS011;9359;50.932;6.924;2024-01-07T10:27:28;46.97;;;13.70;;
18459;SDS011;9359;50.932;6.924;2024-01-07T10:30:02;51.07;;;15.87;;
18459;SDS011;9359;50.932;6.924;2024-01-07T10:32:32;45.73;;;15.03;;
18459;SDS011;9359;50.932;6.924;2024-01-07T10:35:05;42.47;;;14.47;;
18459;SDS011;9359;50.932;6.924;2024-01-07T10:37:40;43.00;;;13.90;;
18459;SDS011;9359;50.932;6.924;2024-01-07T10:40:11;37.63;;;13.47;;
18459;SDS011;9359;50.932;6.924;2024-01-07T10:42:45;36.90;;;11.60;;
18459;SDS011;9359;50.932;6.924;2024-01-07T10:45:17;37.33;;;12.53;;
18459;SDS011;9359;50.932;6.924;2024-01-07T10:47:48;45.20;;;12.90;;
18459;SDS011;9359;50.932;6.924;2024-01-07T10:50:19;46.53;;;14.00;;
18459;SDS011;9359;50.932;6.924;2024-01-07T10:52:51;45.77;;;14.00;;
18459;SDS011;9359;50.932;6.924;2024-01-07T10:55:34;50.80;;;16.23;;
18459;SDS011;9359;50.932;6.924;2024-01-07T10:58:06;56.63;;;15.67;;
18459;SDS011;9359;50.932;6.924;2024-01-07T11:00:38;43.77;;;14.30;;
18459;SDS011;9359;50.932;6.924;2024-01-07T11:03:09;38.60;;;13.30;;
18459;SDS011;9359;50.932;6.924;2024-01-07T11:05:44;44.13;;;14.30;;
18459;SDS011;9359;50.932;6.924;2024-01-07T11:08:21;46.90;;;15.00;;
18459;SDS011;9359;50.932;6.924;2024-01-07T11:10:57;53.37;;;15.87;;
18459;SDS011;9359;50.932;6.924;2024-01-07T11:13:35;54.87;;;16.63;;
18459;SDS011;9359;50.932;6.924;2024-01-07T11:16:05;63.37;;;17.60;;
18459;SDS011;9359;50.932;6.924;2024-01-07T11:18:45;54.27;;;17.40;;
18459;SDS011;9359;50.932;6.924;2024-01-07T11:21:20;60.30;;;16.00;;
18459;SDS011;9359;50.932;6.924;2024-01-07T11:23:52;52.93;;;16.03;;
18459;SDS011;9359;50.932;6.924;2024-01-07T11:26:23;47.77;;;15.50;;
18459;SDS011;9359;50.932;6.924;2024-01-07T11:28:59;52.77;;;16.83;;
18459;SDS011;9359;50.932;6.924;2024-01-07T11:31:45;50.60;;;14.90;;
18459;SDS011;9359;50.932;6.924;2024-01-07T11:37:10;56.17;;;16.60;;
18459;SDS011;9359;50.932;6.924;2024-01-07T11:39:42;49.37;;;16.10;;
18459;SDS011;9359;50.932;6.924;2024-01-07T11:42:13;49.80;;;15.80;;
18459;SDS011;9359;50.932;6.924;2024-01-07T11:47:36;62.17;;;18.30;;
18459;SDS011;9359;50.932;6.924;2024-01-07T11:50:07;48.73;;;16.87;;
18459;SDS011;9359;50.932;6.924;2024-01-07T11:52:38;52.80;;;18.10;;
18459;SDS011;9359;50.932;6.924;2024-01-07T11:55:10;52.03;;;17.20;;
18459;SDS011;9359;50.932;6.924;2024-01-07T11:57:42;55.27;;;17.20;;
18459;SDS011;9359;50.932;6.924;2024-01-07T12:00:15;52.23;;;19.00;;
18459;SDS011;9359;50.932;6.924;2024-01-07T12:02:46;56.83;;;17.47;;
18459;SDS011;9359;50.932;6.924;2024-01-07T12:05:16;61.93;;;19.30;;
18459;SDS011;9359;50.932;6.924;2024-01-07T12:07:47;60.30;;;18.40;;
18459;SDS011;9359;50.932;6.924;2024-01-07T12:10:17;58.93;;;18.30;;
18459;SDS011;9359;50.932;6.924;2024-01-07T12:12:48;73.70;;;19.13;;
18459;SDS011;9359;50.932;6.924;2024-01-07T12:15:21;65.27;;;19.23;;
18459;SDS011;9359;50.932;6.924;2024-01-07T12:17:58;73.87;;;19.30;;
18459;SDS011;9359;50.932;6.924;2024-01-07T12:20:29;72.93;;;19.73;;
18459;SDS011;9359;50.932;6.924;2024-01-07T12:23:05;72.20;;;22.20;;
18459;SDS011;9359;50.932;6.924;2024-01-07T12:25:36;63.80;;;18.53;;
18459;SDS011;9359;50.932;6.924;2024-01-07T12:28:06;68.40;;;20.17;;
18459;SDS011;9359;50.932;6.924;2024-01-07T12:30:39;74.03;;;21.00;;
18459;SDS011;9359;50.932;6.924;2024-01-07T12:33:09;59.13;;;19.97;;
18459;SDS011;9359;50.932;6.924;2024-01-07T12:35:40;69.33;;;21.90;;
18459;SDS011;9359;50.932;6.924;2024-01-07T12:38:10;67.63;;;20.27;;
18459;SDS011;9359;50.932;6.924;2024-01-07T12:40:40;84.07;;;19.13;;
18459;SDS011;9359;50.932;6.924;2024-01-07T12:43:11;85.37;;;20.73;;
18459;SDS011;9359;50.932;6.924;2024-01-07T12:45:44;66.00;;;20.23;;
18459;SDS011;9359;50.932;6.924;2024-01-07T12:48:14;63.53;;;19.23;;
18459;SDS011;9359;50.932;6.924;2024-01-07T12:50:45;65.70;;;20.77;;
18459;SDS011;9359;50.932;6.924;2024-01-07T12:53:16;60.87;;;18.70;;
18459;SDS011;9359;50.932;6.924;2024-01-07T12:55:47;61.67;;;19.73;;
18459;SDS011;9359;50.932;6.924;2024-01-07T12:58:17;85.83;;;20.60;;
18459;SDS011;9359;50.932;6.924;2024-01-07T13:00:51;93.87;;;20.77;;
18459;SDS011;9359;50.932;6.924;2024-01-07T13:03:21;78.93;;;20.77;;
18459;SDS011;9359;50.932;6.924;2024-01-07T13:05:52;73.37;;;20.17;;
18459;SDS011;9359;50.932;6.924;2024-01-07T13:08:22;72.77;;;19.77;;
18459;SDS011;9359;50.932;6.924;2024-01-07T13:10:54;67.13;;;19.77;;
18459;SDS011;9359;50.932;6.924;2024-01-07T13:13:25;65.50;;;19.37;;
18459;SDS011;9359;50.932;6.924;2024-01-07T13:15:58;71.70;;;18.97;;
18459;SDS011;9359;50.932;6.924;2024-01-07T13:18:28;64.50;;;19.03;;
18459;SDS011;9359;50.932;6.924;2024-01-07T13:20:59;75.63;;;19.40;;
18459;SDS011;9359;50.932;6.924;2024-01-07T13:23:29;73.57;;;20.23;;
18459;SDS011;9359;50.932;6.924;2024-01-07T13:26:00;63.93;;;19.13;;
18459;SDS011;9359;50.932;6.924;2024-01-07T13:28:32;69.47;;;18.90;;
18459;SDS011;9359;50.932;6.924;2024-01-07T13:31:04;66.80;;;19.90;;
18459;SDS011;9359;50.932;6.924;2024-01-07T13:33:35;65.37;;;19.43;;
18459;SDS011;9359;50.932;6.924;2024-01-07T13:36:06;65.10;;;19.23;;
18459;SDS011;9359;50.932;6.924;2024-01-07T13:38:38;67.73;;;21.13;;
18459;SDS011;9359;50.932;6.924;2024-01-07T13:41:08;76.20;;;21.83;;
18459;SDS011;9359;50.932;6.924;2024-01-07T13:43:40;79.80;;;22.10;;
18459;SDS011;9359;50.932;6.924;2024-01-07T13:46:12;63.57;;;19.50;;
18459;SDS011;9359;50.932;6.924;2024-01-07T13:48:42;62.13;;;19.80;;
18459;SDS011;9359;50.932;6.924;2024-01-07T13:51:13;54.93;;;17.53;;
18459;SDS011;9359;50.932;6.924;2024-01-07T13:53:43;55.50;;;18.07;;
18459;SDS011;9359;50.932;6.924;2024-01-07T13:56:14;55.57;;;19.03;;
18459;SDS011;9359;50.932;6.924;2024-01-07T13:58:44;60.10;;;18.43;;
18459;SDS011;9359;50.932;6.924;2024-01-07T14:01:18;61.40;;;18.73;;
18459;SDS011;9359;50.932;6.924;2024-01-07T14:03:48;57.07;;;18.07;;
18459;SDS011;9359;50.932;6.924;2024-01-07T14:06:18;65.20;;;19.90;;
18459;SDS011;9359;50.932;6.924;2024-01-07T14:08:49;59.73;;;18.63;;
18459;SDS011;9359;50.932;6.924;2024-01-07T14:11:20;59.47;;;19.27;;
18459;SDS011;9359;50.932;6.924;2024-01-07T14:13:50;60.37;;;18.43;;
18459;SDS011;9359;50.932;6.924;2024-01-07T14:16:23;59.00;;;19.23;;
18459;SDS011;9359;50.932;6.924;2024-01-07T14:18:54;63.97;;;19.23;;
18459;SDS011;9359;50.932;6.924;2024-01-07T14:21:25;62.03;;;20.70;;
18459;SDS011;9359;50.932;6.924;2024-01-07T14:23:56;77.67;;;24.53;;
18459;SDS011;9359;50.932;6.924;2024-01-07T14:26:27;80.63;;;26.63;;
18459;SDS011;9359;50.932;6.924;2024-01-07T14:28:58;88.17;;;28.53;;
18459;SDS011;9359;50.932;6.924;2024-01-07T14:31:32;91.47;;;31.73;;
18459;SDS011;9359;50.932;6.924;2024-01-07T14:34:02;110.03;;;32.87;;
18459;SDS011;9359;50.932;6.924;2024-01-07T14:36:32;120.97;;;36.30;;
18459;SDS011;9359;50.932;6.924;2024-01-07T14:39:03;116.77;;;36.03;;
18459;SDS011;9359;50.932;6.924;2024-01-07T14:41:34;119.60;;;37.07;;
18459;SDS011;9359;50.932;6.924;2024-01-07T14:44:05;114.73;;;35.93;;
18459;SDS011;9359;50.932;6.924;2024-01-07T14:46:37;127.17;;;35.50;;
18459;SDS011;9359;50.932;6.924;2024-01-07T14:49:07;134.87;;;40.77;;
18459;SDS011;9359;50.932;6.924;2024-01-07T14:51:38;149.83;;;42.43;;
18459;SDS011;9359;50.932;6.924;2024-01-07T14:54:09;141.53;;;42.10;;
18459;SDS011;9359;50.932;6.924;2024-01-07T14:56:39;129.47;;;38.23;;
18459;SDS011;9359;50.932;6.924;2024-01-07T14:59:10;109.33;;;34.57;;
18459;SDS011;9359;50.932;6.924;2024-01-07T15:01:42;112.17;;;34.23;;
18459;SDS011;9359;50.932;6.924;2024-01-07T15:04:12;106.23;;;34.53;;
18459;SDS011;9359;50.932;6.924;2024-01-07T15:06:43;113.33;;;32.60;;
18459;SDS011;9359;50.932;6.924;2024-01-07T15:09:15;101.13;;;30.77;;